Time;durP1;ratioP1;P1;durP2;ratioP2;P2;SDS_P1;SDS_P2;PMS_P1;PMS_P2;Temp;Humidity;BMP_temperature;BMP_pressure;BME280_temperature;BME280_humidity;BME280_pressure;Samples;Min_cycle;Max_cycle;Signal;HPM_P1;HPM_P2
2022/09/24 00:00:37;;;;;;;4.70;4.30;;;11.40;99.90;;;;;;6228105;28;20584;-68
2022/09/24 00:03:41;;;;;;;5.70;4.97;;;11.40;99.90;;;;;;6228369;28;20776;-67
2022/09/24 00:06:46;;;;;;;4.07;3.77;;;11.30;99.90;;;;;;6228438;28;20808;-67
2022/09/24 00:09:50;;;;;;;4.40;3.53;;;11.20;99.90;;;;;;6227002;28;20470;-67
2022/09/24 00:12:53;;;;;;;4.40;3.70;;;11.20;99.90;;;;;;6228300;28;20480;-67
2022/09/24 00:15:57;;;;;;;4.63;4.23;;;11.20;99.90;;;;;;6227958;28;20468;-68
2022/09/24 00:19:03;;;;;;;4.93;4.43;;;11.10;99.90;;;;;;6228487;28;21050;-67
2022/09/24 00:22:06;;;;;;;5.30;4.50;;;11.10;99.90;;;;;;6228982;28;20472;-67
2022/09/24 00:28:32;;;;;;;5.00;4.00;;;11.10;99.90;;;;;;6228026;28;20502;-68
2022/09/24 00:31:35;;;;;;;4.50;4.10;;;11.10;99.90;;;;;;6227569;28;20476;-68
2022/09/24 00:34:39;;;;;;;5.87;4.30;;;11.10;99.90;;;;;;6227748;28;20487;-68
2022/09/24 00:37:42;;;;;;;5.17;4.67;;;11.10;99.90;;;;;;6227828;28;20472;-68
2022/09/24 00:40:46;;;;;;;5.03;4.53;;;11.00;99.90;;;;;;6227281;28;20476;-68
2022/09/24 00:43:50;;;;;;;6.63;4.00;;;11.00;99.90;;;;;;6218149;28;20468;-65
2022/09/24 00:46:53;;;;;;;4.37;4.07;;;11.00;99.90;;;;;;6227379;28;20519;-65
2022/09/24 00:50:05;;;;;;;3.90;3.60;;;10.90;99.90;;;;;;6227483;28;20478;-65
2022/09/24 00:53:13;;;;;;;3.97;3.60;;;10.90;99.90;;;;;;6226889;28;20480;-65
2022/09/24 00:56:21;;;;;;;4.57;4.10;;;10.80;99.90;;;;;;6227105;28;21019;-66
2022/09/24 00:59:25;;;;;;;4.57;3.90;;;10.80;99.90;;;;;;6227179;28;20476;-66
2022/09/24 01:02:29;;;;;;;5.83;5.23;;;10.80;99.90;;;;;;6227012;28;20514;-67
2022/09/24 01:05:34;;;;;;;6.60;5.20;;;10.80;99.90;;;;;;6227012;28;20495;-66
2022/09/24 01:08:37;;;;;;;5.43;4.90;;;10.80;99.90;;;;;;6227038;28;20480;-66
2022/09/24 01:11:50;;;;;;;8.83;4.80;;;10.80;99.90;;;;;;6226745;28;20480;-66
2022/09/24 01:15:05;;;;;;;6.07;4.60;;;10.70;99.90;;;;;;6226658;28;20476;-66
2022/09/24 01:18:16;;;;;;;5.70;4.63;;;10.70;99.90;;;;;;6226486;28;20791;-66
2022/09/24 01:21:27;;;;;;;5.00;4.60;;;10.80;99.90;;;;;;6226137;28;20487;-66
2022/09/24 01:24:51;;;;;;;5.50;4.20;;;10.80;99.90;;;;;;6225887;28;20908;-66
2022/09/24 01:28:10;;;;;;;4.20;3.80;;;10.70;99.90;;;;;;6226352;28;20963;-69
2022/09/24 01:31:19;;;;;;;4.70;4.30;;;10.70;99.90;;;;;;6226114;28;20774;-68
2022/09/24 01:34:27;;;;;;;4.33;4.03;;;10.70;99.90;;;;;;6226149;28;20763;-68
2022/09/24 01:37:34;;;;;;;4.73;4.30;;;10.60;99.90;;;;;;6225800;28;20518;-68
2022/09/24 01:40:39;;;;;;;5.80;4.63;;;10.50;99.90;;;;;;6224934;28;20848;-68
2022/09/24 01:43:43;;;;;;;5.20;4.43;;;10.60;99.90;;;;;;6222121;28;20480;-68
2022/09/24 01:46:48;;;;;;;4.63;4.23;;;10.50;99.90;;;;;;6219760;28;20494;-68
2022/09/24 01:49:52;;;;;;;4.90;4.40;;;10.50;99.90;;;;;;6225083;28;20999;-68
2022/09/24 01:53:01;;;;;;;5.63;4.63;;;10.50;99.90;;;;;;6224895;28;20978;-69
2022/09/24 01:56:11;;;;;;;5.80;5.00;;;10.50;99.90;;;;;;6222816;28;20513;-69
2022/09/24 01:59:23;;;;;;;7.30;4.40;;;10.40;99.90;;;;;;6225611;28;20480;-69
2022/09/24 02:02:34;;;;;;;5.27;4.20;;;10.40;99.90;;;;;;6224537;28;20468;-69
2022/09/24 02:05:43;;;;;;;4.23;3.93;;;10.40;99.90;;;;;;6225718;28;20480;-69
2022/09/24 02:08:48;;;;;;;4.10;3.70;;;10.40;99.90;;;;;;6225273;28;20472;-69
2022/09/24 02:11:52;;;;;;;6.93;4.17;;;10.30;99.90;;;;;;6225239;28;20476;-69
2022/09/24 02:14:59;;;;;;;4.17;3.77;;;10.30;99.90;;;;;;6226630;28;20811;-69
2022/09/24 02:18:08;;;;;;;4.50;3.90;;;10.30;99.90;;;;;;6226310;28;20475;-69
2022/09/24 02:21:14;;;;;;;4.80;3.47;;;10.30;99.90;;;;;;6225044;28;20948;-69
2022/09/24 02:24:22;;;;;;;4.60;4.30;;;10.30;99.90;;;;;;6225590;28;20472;-69
2022/09/24 02:27:27;;;;;;;5.20;4.20;;;10.20;99.90;;;;;;6225889;28;20480;-69
2022/09/24 02:30:37;;;;;;;4.03;3.73;;;10.20;99.90;;;;;;6227219;28;20465;-68
2022/09/24 02:37:07;;;;;;;4.17;3.73;;;10.20;99.90;;;;;;6236088;28;20488;-69
2022/09/24 02:40:12;;;;;;;4.20;3.80;;;10.10;99.90;;;;;;6230486;28;21052;-69
2022/09/24 02:43:16;;;;;;;4.27;3.90;;;10.10;99.90;;;;;;6229889;28;20954;-69
2022/09/24 02:46:19;;;;;;;4.23;3.83;;;10.10;99.90;;;;;;6229904;28;20980;-68
2022/09/24 02:49:24;;;;;;;4.43;3.83;;;10.10;99.90;;;;;;6230327;28;20472;-68
2022/09/24 02:52:27;;;;;;;4.60;3.93;;;10.10;99.90;;;;;;6220187;28;20537;-68
2022/09/24 02:55:31;;;;;;;3.73;3.53;;;10.10;99.90;;;;;;6229850;28;20858;-68
2022/09/24 02:58:36;;;;;;;5.20;4.00;;;10.00;99.90;;;;;;6229850;28;20464;-68
2022/09/24 03:01:39;;;;;;;4.10;3.80;;;10.00;99.90;;;;;;6230184;28;20472;-68
2022/09/24 03:04:44;;;;;;;3.80;3.43;;;10.00;99.90;;;;;;6229954;28;20471;-69
2022/09/24 03:07:47;;;;;;;4.10;3.80;;;9.90;99.90;;;;;;6229944;28;20483;-68
2022/09/24 03:10:51;;;;;;;3.43;3.20;;;9.90;99.90;;;;;;6229297;28;20955;-68
2022/09/24 03:13:54;;;;;;;4.80;4.07;;;9.90;99.90;;;;;;6229699;28;20476;-68
2022/09/24 03:16:57;;;;;;;4.40;4.10;;;9.80;99.90;;;;;;6229962;28;20522;-68
2022/09/24 03:20:02;;;;;;;4.33;3.93;;;9.80;99.90;;;;;;6229278;28;20859;-68
2022/09/24 03:23:05;;;;;;;4.57;3.77;;;9.80;99.90;;;;;;6229342;28;20491;-68
2022/09/24 03:26:09;;;;;;;6.80;3.87;;;9.70;99.90;;;;;;6230270;28;20479;-68
2022/09/24 03:29:12;;;;;;;4.17;3.63;;;9.70;99.90;;;;;;6231878;28;20534;-68
2022/09/24 03:32:14;;;;;;;3.83;3.53;;;9.80;99.90;;;;;;6230431;28;20542;-69
2022/09/24 03:35:19;;;;;;;3.40;3.17;;;9.80;99.90;;;;;;6229281;28;21019;-68
2022/09/24 03:38:22;;;;;;;4.50;4.10;;;9.70;99.90;;;;;;6229205;28;20971;-68
2022/09/24 03:41:27;;;;;;;4.00;3.70;;;9.70;99.90;;;;;;6228741;28;20827;-68
2022/09/24 03:44:30;;;;;;;3.83;3.53;;;9.70;99.90;;;;;;6229099;28;20464;-68
2022/09/24 03:47:33;;;;;;;5.03;4.33;;;9.80;99.90;;;;;;6228738;28;20951;-68
2022/09/24 03:50:38;;;;;;;6.63;4.57;;;9.80;99.90;;;;;;6228439;28;20510;-68
2022/09/24 03:53:41;;;;;;;5.10;3.70;;;9.80;99.90;;;;;;6228627;28;20464;-68
2022/09/24 03:56:44;;;;;;;3.80;3.50;;;9.80;99.90;;;;;;6223643;28;20953;-68
2022/09/24 03:59:48;;;;;;;3.93;3.63;;;9.80;99.90;;;;;;6228426;28;20980;-68
2022/09/24 04:02:51;;;;;;;4.83;3.90;;;9.70;99.90;;;;;;6228191;28;20512;-68
2022/09/24 04:05:55;;;;;;;4.80;4.00;;;9.70;99.90;;;;;;6228267;28;20923;-68
2022/09/24 04:08:59;;;;;;;3.93;3.63;;;9.70;99.90;;;;;;6227901;28;21033;-68
2022/09/24 04:12:02;;;;;;;5.03;3.70;;;9.70;99.90;;;;;;6228044;28;20476;-68
2022/09/24 04:15:06;;;;;;;4.37;4.00;;;9.70;99.90;;;;;;6227976;28;20492;-68
2022/09/24 04:18:09;;;;;;;4.33;3.93;;;9.70;99.90;;;;;;6228013;28;20472;-68
2022/09/24 04:21:14;;;;;;;4.80;4.40;;;9.70;99.90;;;;;;6228541;28;20487;-68
2022/09/24 04:24:17;;;;;;;4.47;4.07;;;9.60;99.90;;;;;;6231433;28;20469;-68
2022/09/24 04:27:20;;;;;;;4.10;3.70;;;9.60;99.90;;;;;;6228270;28;20483;-68
2022/09/24 04:30:25;;;;;;;4.50;3.50;;;9.60;99.90;;;;;;6227406;28;20791;-68
2022/09/24 04:33:28;;;;;;;3.90;3.60;;;9.70;99.90;;;;;;6227855;28;20487;-68
2022/09/24 04:36:32;;;;;;;4.63;4.20;;;9.70;99.90;;;;;;6227645;28;20518;-68
2022/09/24 04:39:35;;;;;;;4.00;3.70;;;9.60;99.90;;;;;;6227780;28;20502;-68
2022/09/24 04:42:39;;;;;;;7.23;4.50;;;9.70;99.90;;;;;;6227648;28;20472;-68
2022/09/24 04:45:43;;;;;;;4.80;4.40;;;9.60;99.90;;;;;;6227800;28;20440;-68
2022/09/24 04:48:46;;;;;;;4.93;4.53;;;9.60;99.90;;;;;;6227503;28;20987;-68
2022/09/24 04:51:50;;;;;;;4.83;4.53;;;9.70;99.90;;;;;;6226753;28;20495;-68
2022/09/24 04:54:53;;;;;;;4.70;4.30;;;9.70;99.90;;;;;;6226618;28;20952;-68
2022/09/24 04:57:57;;;;;;;5.10;4.70;;;9.70;99.90;;;;;;6226936;28;20456;-68
2022/09/24 05:01:02;;;;;;;5.93;5.37;;;9.70;99.90;;;;;;6217713;28;20483;-68
2022/09/24 05:04:05;;;;;;;5.03;4.37;;;9.70;99.90;;;;;;6226903;28;20472;-68
2022/09/24 05:07:11;;;;;;;5.70;5.10;;;9.70;99.90;;;;;;6227059;28;20537;-68
2022/09/24 05:10:14;;;;;;;5.40;5.00;;;9.60;99.90;;;;;;6227226;28;20530;-68
2022/09/24 05:13:17;;;;;;;6.43;5.63;;;9.70;99.90;;;;;;6226444;28;20560;-68
2022/09/24 05:16:21;;;;;;;5.60;5.03;;;9.70;99.90;;;;;;6226729;28;20483;-69
2022/09/24 05:19:24;;;;;;;6.30;5.70;;;9.70;99.90;;;;;;6226530;28;20513;-68
2022/09/24 05:22:30;;;;;;;5.57;5.13;;;9.80;99.90;;;;;;6226367;28;20476;-68
2022/09/24 05:27:07;;;;;;;7.30;6.03;;;9.80;99.90;;;;;;6226472;28;20476;-69
2022/09/24 05:28:55;;;;;;;5.70;5.27;;;9.70;99.90;;;;;;6226190;28;20504;-68
2022/09/24 05:32:00;;;;;;;6.47;5.90;;;9.80;99.90;;;;;;6226421;28;20484;-68
2022/09/24 05:35:03;;;;;;;6.70;6.03;;;10.00;99.90;;;;;;6225833;28;20480;-69
2022/09/24 05:38:08;;;;;;;7.30;5.50;;;10.10;99.90;;;;;;6225910;28;20471;-68
2022/09/24 05:41:11;;;;;;;5.30;4.90;;;10.30;99.90;;;;;;6225688;28;20861;-68
2022/09/24 05:44:14;;;;;;;5.37;4.93;;;10.40;99.90;;;;;;6225425;28;20503;-69
2022/09/24 05:47:17;;;;;;;6.57;5.87;;;10.60;99.90;;;;;;6225970;28;20491;-68
2022/09/24 05:50:20;;;;;;;7.00;5.43;;;10.60;99.90;;;;;;6225634;28;20472;-68
2022/09/24 05:53:24;;;;;;;9.53;5.87;;;10.60;99.90;;;;;;6225516;28;20487;-68
2022/09/24 05:56:27;;;;;;;5.07;4.60;;;10.70;99.90;;;;;;6225581;28;20476;-69
2022/09/24 05:59:31;;;;;;;8.10;6.40;;;10.80;99.90;;;;;;6226030;28;20472;-69
2022/09/24 06:02:34;;;;;;;6.40;5.80;;;11.00;99.90;;;;;;6226129;28;20960;-68
2022/09/24 06:05:37;;;;;;;6.67;6.07;;;11.10;99.90;;;;;;6217453;28;20535;-68
2022/09/24 06:08:41;;;;;;;6.90;6.30;;;11.20;99.90;;;;;;6226169;28;20490;-68
2022/09/24 06:11:45;;;;;;;8.00;5.67;;;11.30;99.90;;;;;;6225725;28;20498;-68
2022/09/24 06:14:48;;;;;;;8.00;6.43;;;11.40;99.90;;;;;;6225572;28;20468;-68
2022/09/24 06:17:53;;;;;;;8.33;6.50;;;11.50;99.90;;;;;;6225655;28;20468;-68
2022/09/24 06:21:01;;;;;;;6.33;5.50;;;11.60;99.90;;;;;;6225080;28;20538;-68
2022/09/24 06:24:06;;;;;;;7.13;6.20;;;11.60;99.90;;;;;;6225604;28;20534;-68
2022/09/24 06:27:09;;;;;;;5.40;4.90;;;11.70;99.90;;;;;;6225242;28;20839;-68
2022/09/24 06:30:12;;;;;;;7.40;5.90;;;11.80;99.90;;;;;;6224839;28;20948;-68
2022/09/24 06:33:15;;;;;;;6.17;5.60;;;12.10;99.90;;;;;;6224548;28;20487;-68
2022/09/24 06:36:18;;;;;;;4.90;4.50;;;12.20;99.90;;;;;;6224047;28;20480;-68
2022/09/24 06:39:24;;;;;;;6.27;5.87;;;12.40;99.90;;;;;;6225389;28;20467;-68
2022/09/24 06:42:28;;;;;;;7.50;5.03;;;12.80;99.90;;;;;;6225183;28;20594;-68
2022/09/24 06:45:31;;;;;;;5.53;4.73;;;13.10;99.90;;;;;;6225363;28;20480;-68
2022/09/24 06:48:36;;;;;;;5.67;5.20;;;13.30;99.90;;;;;;6224571;28;20546;-68
2022/09/24 06:51:40;;;;;;;5.47;4.97;;;13.60;99.90;;;;;;6224378;28;20491;-68
2022/09/24 06:54:44;;;;;;;4.60;4.20;;;14.20;99.70;;;;;;6223694;28;20448;-67
2022/09/24 06:57:47;;;;;;;5.40;4.70;;;15.40;98.70;;;;;;6225050;28;20448;-67
2022/09/24 07:00:53;;;;;;;8.50;5.53;;;16.20;96.30;;;;;;6224377;28;20943;-67
2022/09/24 07:03:56;;;;;;;6.40;5.80;;;16.50;94.90;;;;;;6225138;28;20920;-66
2022/09/24 07:10:18;;;;;;;7.13;6.47;;;18.50;91.50;;;;;;6212354;28;20827;-67
2022/09/24 07:13:22;;;;;;;7.37;6.77;;;19.40;87.30;;;;;;6224547;28;20229;-68
2022/09/24 07:16:25;;;;;;;7.00;6.40;;;20.40;83.60;;;;;;6224901;28;20578;-68
2022/09/24 07:19:28;;;;;;;6.90;5.83;;;21.50;76.90;;;;;;6229031;28;20681;-67
2022/09/24 07:22:31;;;;;;;7.00;6.40;;;22.80;71.30;;;;;;6228513;28;20233;-68
2022/09/24 07:25:37;;;;;;;10.83;9.60;;;24.40;63.50;;;;;;6228922;28;20236;-67
2022/09/24 07:28:40;;;;;;;6.70;6.20;;;25.70;57.40;;;;;;6229066;28;20283;-67
2022/09/24 07:31:43;;;;;;;7.97;7.37;;;26.60;52.30;;;;;;6228479;28;20228;-68
2022/09/24 07:34:47;;;;;;;7.00;6.37;;;27.70;50.30;;;;;;6229306;28;20231;-70
2022/09/24 07:37:58;;;;;;;7.20;6.70;;;28.80;45.20;;;;;;6228761;28;20228;-69
2022/09/24 07:41:03;;;;;;;8.37;6.83;;;30.00;42.70;;;;;;6228590;28;20237;-69
2022/09/24 07:44:07;;;;;;;6.80;6.20;;;31.10;39.90;;;;;;6228720;28;20295;-70
2022/09/24 07:47:10;;;;;;;7.00;6.40;;;32.00;37.60;;;;;;6228775;28;20232;-69
2022/09/24 07:50:17;;;;;;;6.65;6.05;;;32.90;35.60;;;;;;6228505;28;20236;-69
2022/09/24 07:53:22;;;;;;;5.88;5.38;;;33.90;33.60;;;;;;6228014;28;20232;-69
2022/09/24 07:56:26;;;;;;;6.25;5.75;;;34.60;31.40;;;;;;6228460;28;20244;-69
2022/09/24 07:59:31;;;;;;;6.28;5.28;;;35.20;30.00;;;;;;6228592;28;20232;-69
2022/09/24 08:02:34;;;;;;;5.40;4.90;;;35.70;29.40;;;;;;6237191;28;20236;-69
2022/09/24 08:05:43;;;;;;;5.88;4.65;;;36.00;29.00;;;;;;6245128;28;20229;-69
2022/09/24 08:08:49;;;;;;;5.72;5.32;;;36.50;28.20;;;;;;6236031;28;20740;-70
2022/09/24 08:11:57;;;;;;;5.57;5.07;;;36.80;27.80;;;;;;6228332;28;20256;-69
2022/09/24 08:15:03;;;;;;;5.43;5.03;;;36.90;26.90;;;;;;6213765;28;20331;-69
2022/09/24 08:18:06;;;;;;;6.38;5.88;;;36.80;26.50;;;;;;6227780;28;20687;-69
2022/09/24 08:21:12;;;;;;;6.10;5.60;;;37.60;26.50;;;;;;6225747;28;20228;-69
2022/09/24 08:24:16;;;;;;;5.78;5.35;;;39.00;25.40;;;;;;6209861;28;20232;-69
2022/09/24 08:27:20;;;;;;;6.13;5.57;;;40.20;24.20;;;;;;6227805;28;20241;-69
2022/09/24 08:30:23;;;;;;;8.00;7.35;;;41.10;23.60;;;;;;6226769;28;20239;-68
2022/09/24 08:33:27;;;;;;;8.88;8.27;;;40.70;23.20;;;;;;6227561;28;20514;-69
2022/09/24 08:36:30;;;;;;;11.43;10.43;;;40.30;23.30;;;;;;6227558;28;20304;-68
2022/09/24 08:39:34;;;;;;;6.93;6.32;;;40.30;23.20;;;;;;6227186;28;20220;-69
2022/09/24 08:42:48;;;;;;;8.48;7.68;;;40.00;23.30;;;;;;6227339;28;20233;-68
2022/09/24 08:49:21;;;;;;;9.75;9.05;;;39.10;23.80;;;;;;6226973;28;20236;-69
2022/09/24 08:52:35;;;;;;;7.05;6.45;;;38.80;23.90;;;;;;6226751;28;20368;-68
2022/09/24 08:55:41;;;;;;;10.75;9.88;;;39.40;23.70;;;;;;6226727;28;20261;-68
2022/09/24 08:58:51;;;;;;;10.10;9.23;;;37.20;24.50;;;;;;6226805;28;20565;-69
2022/09/24 09:02:19;;;;;;;7.28;6.68;;;35.30;26.20;;;;;;6226832;28;20236;-69
2022/09/24 09:05:38;;;;;;;7.80;7.20;;;34.10;27.10;;;;;;6226954;28;20689;-68
2022/09/24 09:08:50;;;;;;;7.80;6.95;;;32.90;28.30;;;;;;6226819;28;20243;-68
2022/09/24 09:12:14;;;;;;;7.38;6.78;;;31.50;29.70;;;;;;6225957;28;20235;-68
2022/09/24 09:15:21;;;;;;;7.03;6.43;;;29.80;31.60;;;;;;6225387;28;20224;-70
2022/09/24 09:18:31;;;;;;;7.67;6.83;;;28.80;33.70;;;;;;6216397;28;20361;-67
2022/09/24 09:21:40;;;;;;;7.90;6.90;;;28.20;34.80;;;;;;6225997;28;20232;-70
2022/09/24 09:24:47;;;;;;;8.40;7.33;;;27.40;36.40;;;;;;6224454;28;20197;-67
2022/09/24 09:27:53;;;;;;;9.77;6.67;;;26.50;37.70;;;;;;6226839;28;20197;-69
2022/09/24 09:31:07;;;;;;;7.83;7.13;;;25.60;39.40;;;;;;6226990;28;20564;-68
2022/09/24 09:34:31;;;;;;;7.73;7.13;;;24.40;41.70;;;;;;6226733;28;20684;-68
2022/09/24 09:37:41;;;;;;;7.07;6.47;;;23.20;44.10;;;;;;6227062;28;20591;-68
2022/09/24 09:40:52;;;;;;;7.70;6.60;;;22.80;45.50;;;;;;6226222;28;20232;-64
2022/09/24 09:44:01;;;;;;;8.07;7.27;;;22.50;45.90;;;;;;6226063;28;20233;-64
2022/09/24 09:47:16;;;;;;;18.10;16.30;;;22.70;46.70;;;;;;6226105;28;20371;-64
2022/09/24 09:50:26;;;;;;;7.47;6.80;;;23.10;46.40;;;;;;6225825;28;20795;-65
2022/09/24 09:53:31;;;;;;;6.93;6.13;;;24.90;44.90;;;;;;6225644;28;20251;-65
2022/09/24 09:56:36;;;;;;;7.17;6.47;;;28.50;39.90;;;;;;6225575;28;20228;-65
2022/09/24 09:59:39;;;;;;;6.90;6.20;;;32.70;33.40;;;;;;6226740;28;20243;-65
2022/09/24 10:02:44;;;;;;;7.15;6.45;;;36.80;29.20;;;;;;6226376;28;20239;-66
2022/09/24 10:05:54;;;;;;;6.00;5.50;;;39.60;25.80;;;;;;6225436;28;20279;-66
2022/09/24 10:09:08;;;;;;;6.22;5.72;;;38.50;25.40;;;;;;6225196;28;20249;-67
2022/09/24 10:12:17;;;;;;;6.68;6.07;;;39.10;25.50;;;;;;6201619;28;20275;-65
2022/09/24 10:15:23;;;;;;;7.95;7.20;;;40.90;24.40;;;;;;6201443;28;20712;-66
2022/09/24 10:18:33;;;;;;;6.50;6.00;;;42.70;22.70;;;;;;6203468;28;20235;-66
2022/09/24 10:21:37;;;;;;;6.68;6.10;;;43.80;21.80;;;;;;6222180;28;20229;-66
2022/09/24 10:24:42;;;;;;;6.65;6.05;;;40.10;23.00;;;;;;6225481;28;20718;-66
2022/09/24 10:27:47;;;;;;;6.28;5.70;;;38.60;24.70;;;;;;6224889;28;20198;-66
2022/09/24 10:30:53;;;;;;;6.15;5.55;;;38.60;24.90;;;;;;6224385;28;20257;-67
2022/09/24 10:34:00;;;;;;;4.88;4.53;;;39.40;24.50;;;;;;6225519;28;20227;-65
2022/09/24 10:37:12;;;;;;;5.38;4.88;;;40.40;23.50;;;;;;6222138;28;20239;-65
2022/09/24 10:40:22;;;;;;;6.07;5.57;;;40.20;23.50;;;;;;6224954;28;20598;-66
2022/09/24 10:43:25;;;;;;;4.82;4.43;;;41.10;23.20;;;;;;6224911;28;20236;-66
2022/09/24 10:47:04;;;;;;;4.88;4.07;;;42.00;22.30;;;;;;6223409;28;20237;-66
2022/09/24 10:50:30;;;;;;;3.53;3.25;;;42.60;21.60;;;;;;6223273;28;20238;-66
2022/09/24 10:53:47;;;;;;;4.35;4.03;;;43.40;21.00;;;;;;6218825;28;20743;-65
2022/09/24 10:56:53;;;;;;;4.15;3.85;;;43.20;20.60;;;;;;6229741;28;20297;-65
2022/09/24 11:00:07;;;;;;;3.78;3.47;;;41.50;21.30;;;;;;6229859;28;20232;-64
2022/09/24 11:03:41;;;;;;;4.38;3.97;;;39.90;22.30;;;;;;6229523;28;20318;-65
2022/09/24 11:06:57;;;;;;;4.38;4.07;;;39.60;22.70;;;;;;6230208;28;20571;-65
2022/09/24 11:10:10;;;;;;;4.03;3.72;;;41.60;22.10;;;;;;6229265;28;20239;-65
2022/09/24 11:13:20;;;;;;;4.45;3.88;;;42.30;21.20;;;;;;6229028;28;20620;-65
2022/09/24 11:16:39;;;;;;;3.53;3.33;;;42.50;21.30;;;;;;6228253;28;20237;-65
2022/09/24 11:20:09;;;;;;;4.63;4.22;;;42.70;20.70;;;;;;6229436;28;20301;-65
2022/09/24 11:23:52;;;;;;;4.28;3.97;;;41.80;21.20;;;;;;6228508;28;20236;-65
2022/09/24 11:27:07;;;;;;;4.28;3.88;;;39.40;23.10;;;;;;6137294;28;20248;-65
2022/09/24 11:30:14;;;;;;;3.90;3.60;;;39.70;23.40;;;;;;6236669;28;20266;-65
2022/09/24 11:33:28;;;;;;;3.67;3.47;;;40.30;22.70;;;;;;6243548;28;20235;-65
2022/09/24 11:36:45;;;;;;;3.78;3.47;;;39.50;22.70;;;;;;6231475;28;20281;-65
2022/09/24 11:40:10;;;;;;;4.35;4.00;;;37.80;23.70;;;;;;6229366;28;20222;-64
2022/09/24 11:43:32;;;;;;;7.20;4.35;;;34.90;25.80;;;;;;6229842;28;20228;-64
2022/09/24 11:46:50;;;;;;;4.18;3.60;;;34.00;27.20;;;;;;6229219;28;20311;-64
2022/09/24 11:50:06;;;;;;;4.20;3.80;;;33.80;27.30;;;;;;6234710;28;20705;-65
2022/09/24 11:53:14;;;;;;;3.78;3.45;;;33.50;27.80;;;;;;6230511;28;20239;-65
2022/09/24 11:56:24;;;;;;;3.70;3.45;;;34.60;26.70;;;;;;6228971;28;20652;-65
2022/09/24 11:59:36;;;;;;;3.97;3.67;;;34.10;26.50;;;;;;6229134;28;20244;-64
2022/09/24 12:02:44;;;;;;;3.90;3.60;;;33.90;27.00;;;;;;6228703;28;20287;-65
2022/09/24 12:05:55;;;;;;;3.60;3.30;;;32.80;27.70;;;;;;6227727;28;20673;-65
2022/09/24 12:09:05;;;;;;;3.55;3.25;;;31.70;29.00;;;;;;6228191;28;20243;-64
2022/09/24 12:12:15;;;;;;;3.00;2.80;;;33.20;28.20;;;;;;6228281;28;20267;-65
2022/09/24 12:15:22;;;;;;;2.83;2.63;;;32.70;27.60;;;;;;6228137;28;20240;-64
2022/09/24 12:18:29;;;;;;;3.22;3.03;;;31.90;28.30;;;;;;6227834;28;20247;-65
2022/09/24 12:21:39;;;;;;;3.22;3.03;;;31.30;29.20;;;;;;6228081;28;20225;-65
2022/09/24 12:24:47;;;;;;;4.05;3.58;;;30.50;30.10;;;;;;6227997;28;20576;-65
2022/09/24 12:27:52;;;;;;;3.40;3.10;;;31.20;30.10;;;;;;6218339;28;20201;-65
2022/09/24 12:34:26;;;;;;;3.88;3.58;;;31.90;29.10;;;;;;6227609;28;20224;-65
2022/09/24 12:37:34;;;;;;;3.22;2.92;;;31.70;29.80;;;;;;6226818;28;20583;-64
2022/09/24 12:41:17;;;;;;;3.25;3.05;;;32.10;30.00;;;;;;6227153;28;20691;-65
2022/09/24 12:44:30;;;;;;;3.55;3.25;;;31.80;29.80;;;;;;6227359;28;20236;-64
2022/09/24 12:47:45;;;;;;;3.95;3.65;;;30.10;31.50;;;;;;6227218;28;20228;-64
2022/09/24 12:50:56;;;;;;;3.57;3.27;;;29.30;33.00;;;;;;6226928;28;20236;-65
2022/09/24 12:54:06;;;;;;;3.77;3.47;;;28.10;35.40;;;;;;6227055;28;20235;-64
2022/09/24 12:57:14;;;;;;;3.33;3.13;;;28.60;34.90;;;;;;6203118;28;20236;-64
2022/09/24 13:00:40;;;;;;;2.85;2.58;;;30.30;33.20;;;;;;6202971;28;20244;-65
2022/09/24 13:03:43;;;;;;;3.33;3.03;;;32.50;30.10;;;;;;6202130;28;20202;-65
2022/09/24 13:06:49;;;;;;;3.15;2.95;;;32.80;29.40;;;;;;6200904;28;20205;-65
2022/09/24 13:09:52;;;;;;;3.60;3.30;;;32.10;29.20;;;;;;6204208;28;20215;-65
2022/09/24 13:12:56;;;;;;;3.38;2.58;;;31.50;30.20;;;;;;6223601;28;20237;-65
2022/09/24 13:16:04;;;;;;;3.83;3.53;;;31.30;31.10;;;;;;6225667;28;20228;-65
2022/09/24 13:19:24;;;;;;;3.72;3.42;;;30.90;31.30;;;;;;6226244;28;20327;-65
2022/09/24 13:22:29;;;;;;;3.63;3.33;;;29.90;32.40;;;;;;6221693;28;20681;-64
2022/09/24 13:25:32;;;;;;;4.03;3.70;;;29.00;33.90;;;;;;6225635;28;20224;-64
2022/09/24 13:28:54;;;;;;;4.60;3.83;;;28.30;34.90;;;;;;6225923;28;20227;-64
2022/09/24 13:32:03;;;;;;;4.00;3.70;;;27.80;35.90;;;;;;6218608;28;20231;-65
2022/09/24 13:35:14;;;;;;;3.80;3.27;;;27.50;36.60;;;;;;6225741;28;20228;-64
2022/09/24 13:38:28;;;;;;;3.67;3.37;;;26.90;37.60;;;;;;6224810;28;20299;-65
2022/09/24 13:41:42;;;;;;;3.50;3.20;;;26.40;38.40;;;;;;6222730;28;20673;-64
2022/09/24 13:44:49;;;;;;;4.13;3.83;;;26.00;40.50;;;;;;6226559;28;20228;-64
2022/09/24 13:47:55;;;;;;;4.33;3.93;;;25.60;40.90;;;;;;6220023;28;20279;-64
2022/09/24 13:50:59;;;;;;;3.80;3.50;;;25.20;41.40;;;;;;6225492;28;20241;-64
2022/09/24 13:54:10;;;;;;;3.63;3.33;;;25.00;42.20;;;;;;6222771;28;20220;-64
2022/09/24 13:57:21;;;;;;;3.30;3.00;;;24.90;41.90;;;;;;6222854;28;20237;-65
2022/09/24 14:00:26;;;;;;;3.10;2.90;;;24.00;42.90;;;;;;6223101;28;20228;-64
2022/09/24 14:03:33;;;;;;;4.10;3.80;;;23.80;42.60;;;;;;6225624;28;20279;-64
2022/09/24 14:06:39;;;;;;;4.93;4.00;;;23.80;43.10;;;;;;6226361;28;20228;-64
2022/09/24 14:09:46;;;;;;;3.40;3.20;;;23.80;44.20;;;;;;6223000;28;20205;-64
2022/09/24 14:13:00;;;;;;;3.80;3.50;;;23.70;44.90;;;;;;6223009;28;20233;-64
2022/09/24 14:16:09;;;;;;;4.10;3.70;;;23.70;45.10;;;;;;6224556;28;20554;-64
2022/09/24 14:19:15;;;;;;;4.10;3.20;;;23.60;45.40;;;;;;6223932;28;20300;-64
2022/09/24 14:22:23;;;;;;;3.87;3.47;;;23.50;46.30;;;;;;6224949;28;20229;-64
2022/09/24 14:25:29;;;;;;;3.77;3.47;;;23.40;46.50;;;;;;6224558;28;20229;-64
2022/09/24 14:28:34;;;;;;;5.30;3.40;;;23.30;46.90;;;;;;6224512;28;20240;-64
2022/09/24 14:31:47;;;;;;;4.30;3.90;;;23.00;47.20;;;;;;6225267;28;20236;-64
2022/09/24 14:34:54;;;;;;;5.40;3.50;;;22.90;48.20;;;;;;6225423;28;20240;-65
2022/09/24 14:38:05;;;;;;;4.70;4.30;;;22.90;48.50;;;;;;6225268;28;20300;-63
2022/09/24 14:41:18;;;;;;;4.27;3.87;;;22.90;48.90;;;;;;6225087;28;20248;-64
2022/09/24 14:44:25;;;;;;;5.00;4.13;;;22.80;49.50;;;;;;6225503;28;20291;-66
2022/09/24 14:47:29;;;;;;;4.53;4.23;;;22.80;49.80;;;;;;6216440;28;20244;-65
2022/09/24 14:50:40;;;;;;;5.60;5.10;;;22.70;50.00;;;;;;6216295;28;20233;-63
2022/09/24 14:53:43;;;;;;;5.53;5.13;;;22.40;50.80;;;;;;6208871;28;20279;-65
2022/09/24 14:56:46;;;;;;;5.83;4.80;;;22.10;51.50;;;;;;6207031;28;20740;-64
2022/09/24 14:59:49;;;;;;;6.43;5.80;;;22.00;52.20;;;;;;6200231;28;20741;-64
2022/09/24 15:02:58;;;;;;;9.00;6.33;;;22.00;52.30;;;;;;6217914;28;20596;-65
2022/09/24 15:06:14;;;;;;;5.10;4.57;;;21.90;52.70;;;;;;6204640;28;20284;-67
2022/09/24 15:09:24;;;;;;;5.07;4.60;;;21.70;53.10;;;;;;6200377;28;20230;-65
2022/09/24 15:12:30;;;;;;;5.37;4.87;;;21.60;53.70;;;;;;6199548;28;20284;-65
2022/09/24 15:15:34;;;;;;;4.77;4.40;;;21.50;54.10;;;;;;6200257;28;20457;-62
2022/09/24 15:18:38;;;;;;;5.00;4.70;;;21.60;54.30;;;;;;6224641;28;20231;-65
2022/09/24 15:21:43;;;;;;;4.40;3.77;;;21.50;54.90;;;;;;6223964;28;20283;-65
2022/09/24 15:24:46;;;;;;;4.57;4.20;;;21.50;55.40;;;;;;6223881;28;20256;-65
2022/09/24 15:27:51;;;;;;;6.73;4.90;;;21.50;55.70;;;;;;6223904;28;20205;-65
2022/09/24 15:30:54;;;;;;;5.40;4.63;;;21.40;56.30;;;;;;6223362;28;20309;-66
2022/09/24 15:33:58;;;;;;;4.80;4.50;;;21.30;56.00;;;;;;6223223;28;20564;-65
2022/09/24 15:37:02;;;;;;;4.70;4.33;;;21.20;56.40;;;;;;6224404;28;20236;-71
2022/09/24 15:40:08;;;;;;;6.70;4.43;;;21.20;56.90;;;;;;6218646;28;20232;-69
2022/09/24 15:43:21;;;;;;;6.97;4.40;;;21.10;57.30;;;;;;6227704;28;20233;-69
2022/09/24 15:46:24;;;;;;;6.10;5.60;;;21.10;58.10;;;;;;6226227;28;20563;-69
2022/09/24 15:49:28;;;;;;;6.13;5.53;;;21.00;58.30;;;;;;6230251;28;20240;-69
2022/09/24 15:52:33;;;;;;;6.47;5.77;;;20.90;59.10;;;;;;6230790;28;20225;-69
2022/09/24 15:55:37;;;;;;;5.60;5.00;;;20.90;59.90;;;;;;6229163;28;20225;-68
2022/09/24 15:58:40;;;;;;;6.03;5.53;;;20.80;60.60;;;;;;6228405;28;20236;-69
2022/09/24 16:01:43;;;;;;;7.33;6.50;;;20.80;61.00;;;;;;6228050;28;20229;-69
2022/09/24 16:04:46;;;;;;;6.97;6.47;;;20.80;61.70;;;;;;6228260;28;20235;-69
2022/09/24 16:07:51;;;;;;;6.53;5.63;;;20.70;62.20;;;;;;6226954;28;20804;-69
2022/09/24 16:10:54;;;;;;;5.33;4.83;;;20.70;63.20;;;;;;6226432;28;20241;-69
2022/09/24 16:13:57;;;;;;;5.50;5.07;;;20.60;63.60;;;;;;6227008;28;20573;-68
2022/09/24 16:17:00;;;;;;;5.80;5.40;;;20.50;64.20;;;;;;6228005;28;20240;-69
2022/09/24 16:20:04;;;;;;;5.70;5.20;;;20.40;65.40;;;;;;6227701;28;20233;-68
2022/09/24 16:23:14;;;;;;;7.63;6.13;;;20.40;66.10;;;;;;6228250;28;20229;-68
2022/09/24 16:26:17;;;;;;;5.93;5.40;;;20.40;67.00;;;;;;6229083;28;20230;-68
2022/09/24 16:29:20;;;;;;;5.57;5.07;;;20.30;67.80;;;;;;6227791;28;20244;-69
2022/09/24 16:32:23;;;;;;;5.30;4.80;;;20.20;69.20;;;;;;6227864;28;20247;-69